sensor_id;sensor_type;location;lat;lon;timestamp;P1;durP1;ratioP1;P2;durP2;ratioP2
67516;SDS011;68821;59.134;37.894;2024-03-17T00:02:11;12.43;;;4.18;;
67516;SDS011;68821;59.134;37.894;2024-03-17T00:04:37;9.90;;;3.80;;
67516;SDS011;68821;59.134;37.894;2024-03-17T00:07:03;9.75;;;4.07;;
67516;SDS011;68821;59.134;37.894;2024-03-17T00:09:29;11.65;;;4.10;;
67516;SDS011;68821;59.134;37.894;2024-03-17T00:11:54;9.52;;;4.00;;
67516;SDS011;68821;59.134;37.894;2024-03-17T00:14:21;10.68;;;4.03;;
67516;SDS011;68821;59.134;37.894;2024-03-17T00:16:47;12.40;;;4.10;;
67516;SDS011;68821;59.134;37.894;2024-03-17T00:19:14;14.32;;;4.78;;
67516;SDS011;68821;59.134;37.894;2024-03-17T00:21:40;8.60;;;3.45;;
67516;SDS011;68821;59.134;37.894;2024-03-17T00:24:06;9.35;;;4.70;;
67516;SDS011;68821;59.134;37.894;2024-03-17T00:26:32;10.18;;;3.90;;
67516;SDS011;68821;59.134;37.894;2024-03-17T00:28:59;11.45;;;3.85;;
67516;SDS011;68821;59.134;37.894;2024-03-17T00:31:25;10.48;;;4.22;;
67516;SDS011;68821;59.134;37.894;2024-03-17T00:33:51;8.95;;;3.53;;
67516;SDS011;68821;59.134;37.894;2024-03-17T00:36:17;10.90;;;4.40;;
67516;SDS011;68821;59.134;37.894;2024-03-17T00:38:44;9.63;;;3.90;;
67516;SDS011;68821;59.134;37.894;2024-03-17T00:41:09;10.23;;;4.57;;
67516;SDS011;68821;59.134;37.894;2024-03-17T00:43:35;7.40;;;3.90;;
67516;SDS011;68821;59.134;37.894;2024-03-17T00:46:02;9.95;;;3.60;;
67516;SDS011;68821;59.134;37.894;2024-03-17T00:48:28;8.35;;;3.65;;
67516;SDS011;68821;59.134;37.894;2024-03-17T00:50:55;7.72;;;3.53;;
67516;SDS011;68821;59.134;37.894;2024-03-17T00:53:21;14.02;;;4.40;;
67516;SDS011;68821;59.134;37.894;2024-03-17T00:55:53;9.48;;;3.88;;
67516;SDS011;68821;59.134;37.894;2024-03-17T00:58:22;7.60;;;3.75;;
67516;SDS011;68821;59.134;37.894;2024-03-17T01:00:48;10.55;;;4.03;;
67516;SDS011;68821;59.134;37.894;2024-03-17T01:03:15;12.77;;;3.78;;
67516;SDS011;68821;59.134;37.894;2024-03-17T01:05:41;10.25;;;3.85;;
67516;SDS011;68821;59.134;37.894;2024-03-17T01:08:08;8.15;;;3.88;;
67516;SDS011;68821;59.134;37.894;2024-03-17T01:10:38;11.88;;;3.95;;
67516;SDS011;68821;59.134;37.894;2024-03-17T01:13:07;7.28;;;3.28;;
67516;SDS011;68821;59.134;37.894;2024-03-17T01:15:37;10.00;;;3.50;;
67516;SDS011;68821;59.134;37.894;2024-03-17T01:18:04;9.10;;;3.80;;
67516;SDS011;68821;59.134;37.894;2024-03-17T01:20:30;11.48;;;4.38;;
67516;SDS011;68821;59.134;37.894;2024-03-17T01:22:56;10.80;;;3.92;;
67516;SDS011;68821;59.134;37.894;2024-03-17T01:25:21;10.93;;;3.95;;
67516;SDS011;68821;59.134;37.894;2024-03-17T01:27:47;10.70;;;3.88;;
67516;SDS011;68821;59.134;37.894;2024-03-17T01:30:13;8.65;;;3.85;;
67516;SDS011;68821;59.134;37.894;2024-03-17T01:32:39;8.68;;;4.10;;
67516;SDS011;68821;59.134;37.894;2024-03-17T01:35:05;8.02;;;4.05;;
67516;SDS011;68821;59.134;37.894;2024-03-17T01:37:32;9.65;;;3.70;;
67516;SDS011;68821;59.134;37.894;2024-03-17T01:40:00;10.48;;;3.75;;
67516;SDS011;68821;59.134;37.894;2024-03-17T01:42:26;9.30;;;4.45;;
67516;SDS011;68821;59.134;37.894;2024-03-17T01:44:54;13.77;;;4.70;;
67516;SDS011;68821;59.134;37.894;2024-03-17T01:47:20;12.70;;;3.70;;
67516;SDS011;68821;59.134;37.894;2024-03-17T01:49:46;8.77;;;3.80;;
67516;SDS011;68821;59.134;37.894;2024-03-17T01:52:14;8.18;;;3.80;;
67516;SDS011;68821;59.134;37.894;2024-03-17T01:54:40;10.20;;;3.90;;
67516;SDS011;68821;59.134;37.894;2024-03-17T01:57:06;9.18;;;3.40;;
67516;SDS011;68821;59.134;37.894;2024-03-17T01:59:32;11.88;;;3.53;;
67516;SDS011;68821;59.134;37.894;2024-03-17T02:01:58;8.32;;;3.88;;
67516;SDS011;68821;59.134;37.894;2024-03-17T02:04:25;9.13;;;4.53;;
67516;SDS011;68821;59.134;37.894;2024-03-17T02:06:50;11.45;;;4.28;;
67516;SDS011;68821;59.134;37.894;2024-03-17T02:09:16;11.13;;;3.95;;
67516;SDS011;68821;59.134;37.894;2024-03-17T02:16:36;8.20;;;3.00;;
67516;SDS011;68821;59.134;37.894;2024-03-17T02:19:02;10.30;;;4.07;;
67516;SDS011;68821;59.134;37.894;2024-03-17T02:21:28;12.88;;;3.40;;
67516;SDS011;68821;59.134;37.894;2024-03-17T02:23:54;8.10;;;3.53;;
67516;SDS011;68821;59.134;37.894;2024-03-17T02:26:20;11.45;;;4.15;;
67516;SDS011;68821;59.134;37.894;2024-03-17T02:28:47;10.13;;;3.85;;
67516;SDS011;68821;59.134;37.894;2024-03-17T02:31:14;10.38;;;4.28;;
67516;SDS011;68821;59.134;37.894;2024-03-17T02:33:41;10.38;;;3.70;;
67516;SDS011;68821;59.134;37.894;2024-03-17T02:36:07;8.32;;;3.55;;
67516;SDS011;68821;59.134;37.894;2024-03-17T02:38:33;10.82;;;3.85;;
67516;SDS011;68821;59.134;37.894;2024-03-17T02:41:17;9.43;;;4.13;;
67516;SDS011;68821;59.134;37.894;2024-03-17T02:43:44;10.35;;;3.65;;
67516;SDS011;68821;59.134;37.894;2024-03-17T02:46:14;9.32;;;4.07;;
67516;SDS011;68821;59.134;37.894;2024-03-17T02:48:40;9.60;;;3.97;;
67516;SDS011;68821;59.134;37.894;2024-03-17T02:51:15;8.40;;;3.88;;
67516;SDS011;68821;59.134;37.894;2024-03-17T02:53:41;15.35;;;4.25;;
67516;SDS011;68821;59.134;37.894;2024-03-17T02:56:08;9.20;;;3.65;;
67516;SDS011;68821;59.134;37.894;2024-03-17T02:58:35;10.25;;;4.25;;
67516;SDS011;68821;59.134;37.894;2024-03-17T03:01:10;10.43;;;4.00;;
67516;SDS011;68821;59.134;37.894;2024-03-17T03:03:36;10.18;;;4.38;;
67516;SDS011;68821;59.134;37.894;2024-03-17T03:06:02;10.73;;;4.07;;
67516;SDS011;68821;59.134;37.894;2024-03-17T03:08:35;8.50;;;3.70;;
67516;SDS011;68821;59.134;37.894;2024-03-17T03:11:04;11.13;;;3.78;;
67516;SDS011;68821;59.134;37.894;2024-03-17T03:18:23;11.57;;;3.80;;
67516;SDS011;68821;59.134;37.894;2024-03-17T03:20:52;11.23;;;4.00;;
67516;SDS011;68821;59.134;37.894;2024-03-17T03:23:19;10.85;;;4.32;;
67516;SDS011;68821;59.134;37.894;2024-03-17T03:25:46;8.32;;;3.72;;
67516;SDS011;68821;59.134;37.894;2024-03-17T03:28:13;8.77;;;3.80;;
67516;SDS011;68821;59.134;37.894;2024-03-17T03:30:39;10.48;;;4.55;;
67516;SDS011;68821;59.134;37.894;2024-03-17T03:33:05;11.05;;;4.40;;
67516;SDS011;68821;59.134;37.894;2024-03-17T03:35:31;9.52;;;3.47;;
67516;SDS011;68821;59.134;37.894;2024-03-17T03:37:57;11.55;;;4.05;;
67516;SDS011;68821;59.134;37.894;2024-03-17T03:40:23;9.38;;;4.30;;
67516;SDS011;68821;59.134;37.894;2024-03-17T03:42:50;11.10;;;4.03;;
67516;SDS011;68821;59.134;37.894;2024-03-17T03:45:16;9.18;;;3.88;;
67516;SDS011;68821;59.134;37.894;2024-03-17T03:47:42;10.15;;;4.25;;
67516;SDS011;68821;59.134;37.894;2024-03-17T03:50:09;10.77;;;4.00;;
67516;SDS011;68821;59.134;37.894;2024-03-17T03:52:35;9.95;;;4.32;;
67516;SDS011;68821;59.134;37.894;2024-03-17T03:55:01;14.27;;;4.20;;
67516;SDS011;68821;59.134;37.894;2024-03-17T03:57:27;11.20;;;4.32;;
67516;SDS011;68821;59.134;37.894;2024-03-17T03:59:55;11.02;;;4.38;;
67516;SDS011;68821;59.134;37.894;2024-03-17T04:02:21;11.48;;;3.60;;
67516;SDS011;68821;59.134;37.894;2024-03-17T04:04:47;12.95;;;4.18;;
67516;SDS011;68821;59.134;37.894;2024-03-17T04:07:13;10.13;;;4.15;;
67516;SDS011;68821;59.134;37.894;2024-03-17T04:09:39;8.27;;;3.97;;
67516;SDS011;68821;59.134;37.894;2024-03-17T04:12:05;8.10;;;3.45;;
67516;SDS011;68821;59.134;37.894;2024-03-17T04:14:30;11.13;;;3.53;;
67516;SDS011;68821;59.134;37.894;2024-03-17T04:16:56;11.68;;;4.30;;
67516;SDS011;68821;59.134;37.894;2024-03-17T04:19:23;14.43;;;4.25;;
67516;SDS011;68821;59.134;37.894;2024-03-17T04:21:49;13.25;;;4.45;;
67516;SDS011;68821;59.134;37.894;2024-03-17T04:24:15;10.85;;;4.22;;
67516;SDS011;68821;59.134;37.894;2024-03-17T04:26:41;10.45;;;4.15;;
67516;SDS011;68821;59.134;37.894;2024-03-17T04:29:06;9.43;;;3.92;;
67516;SDS011;68821;59.134;37.894;2024-03-17T04:31:32;10.85;;;4.40;;
67516;SDS011;68821;59.134;37.894;2024-03-17T04:33:58;8.40;;;3.85;;
67516;SDS011;68821;59.134;37.894;2024-03-17T04:36:24;9.63;;;4.03;;
67516;SDS011;68821;59.134;37.894;2024-03-17T04:38:50;8.80;;;3.58;;
67516;SDS011;68821;59.134;37.894;2024-03-17T04:41:16;11.02;;;4.35;;
67516;SDS011;68821;59.134;37.894;2024-03-17T04:43:42;8.15;;;3.78;;
67516;SDS011;68821;59.134;37.894;2024-03-17T04:46:09;9.77;;;4.50;;
67516;SDS011;68821;59.134;37.894;2024-03-17T04:48:37;10.77;;;4.13;;
67516;SDS011;68821;59.134;37.894;2024-03-17T04:51:03;15.57;;;4.40;;
67516;SDS011;68821;59.134;37.894;2024-03-17T04:53:30;8.68;;;4.00;;
67516;SDS011;68821;59.134;37.894;2024-03-17T04:56:03;10.07;;;3.80;;
67516;SDS011;68821;59.134;37.894;2024-03-17T04:58:33;11.52;;;4.28;;
67516;SDS011;68821;59.134;37.894;2024-03-17T05:01:08;8.77;;;3.60;;
67516;SDS011;68821;59.134;37.894;2024-03-17T05:03:34;8.70;;;4.10;;
67516;SDS011;68821;59.134;37.894;2024-03-17T05:06:01;9.77;;;4.28;;
67516;SDS011;68821;59.134;37.894;2024-03-17T05:08:27;8.70;;;3.70;;
67516;SDS011;68821;59.134;37.894;2024-03-17T05:10:57;13.73;;;5.70;;
67516;SDS011;68821;59.134;37.894;2024-03-17T05:13:23;17.08;;;4.22;;
67516;SDS011;68821;59.134;37.894;2024-03-17T05:15:49;8.50;;;3.95;;
67516;SDS011;68821;59.134;37.894;2024-03-17T05:18:15;12.38;;;3.83;;
67516;SDS011;68821;59.134;37.894;2024-03-17T05:20:41;9.18;;;3.70;;
67516;SDS011;68821;59.134;37.894;2024-03-17T05:23:06;11.05;;;4.47;;
67516;SDS011;68821;59.134;37.894;2024-03-17T05:25:32;16.40;;;4.43;;
67516;SDS011;68821;59.134;37.894;2024-03-17T05:28:02;12.15;;;3.83;;
67516;SDS011;68821;59.134;37.894;2024-03-17T05:30:28;8.60;;;4.00;;
67516;SDS011;68821;59.134;37.894;2024-03-17T05:32:54;10.90;;;4.15;;
67516;SDS011;68821;59.134;37.894;2024-03-17T05:35:21;13.30;;;4.75;;
67516;SDS011;68821;59.134;37.894;2024-03-17T05:37:48;11.65;;;4.43;;
67516;SDS011;68821;59.134;37.894;2024-03-17T05:40:14;14.27;;;4.18;;
67516;SDS011;68821;59.134;37.894;2024-03-17T05:42:43;10.48;;;3.47;;
67516;SDS011;68821;59.134;37.894;2024-03-17T05:45:09;12.02;;;4.55;;
67516;SDS011;68821;59.134;37.894;2024-03-17T05:47:37;9.75;;;4.35;;
67516;SDS011;68821;59.134;37.894;2024-03-17T05:50:03;9.55;;;3.60;;
67516;SDS011;68821;59.134;37.894;2024-03-17T05:52:29;16.83;;;4.82;;
67516;SDS011;68821;59.134;37.894;2024-03-17T05:54:55;10.82;;;4.53;;
67516;SDS011;68821;59.134;37.894;2024-03-17T05:57:21;11.23;;;4.35;;
67516;SDS011;68821;59.134;37.894;2024-03-17T05:59:48;12.15;;;4.13;;
67516;SDS011;68821;59.134;37.894;2024-03-17T06:02:14;12.93;;;4.20;;
67516;SDS011;68821;59.134;37.894;2024-03-17T06:04:41;16.48;;;4.72;;
67516;SDS011;68821;59.134;37.894;2024-03-17T06:07:07;11.40;;;4.35;;
67516;SDS011;68821;59.134;37.894;2024-03-17T06:09:33;16.35;;;4.70;;
67516;SDS011;68821;59.134;37.894;2024-03-17T06:11:58;8.70;;;4.00;;
67516;SDS011;68821;59.134;37.894;2024-03-17T06:14:24;9.30;;;3.83;;
67516;SDS011;68821;59.134;37.894;2024-03-17T06:16:50;11.57;;;4.70;;
67516;SDS011;68821;59.134;37.894;2024-03-17T06:19:16;13.00;;;4.22;;
67516;SDS011;68821;59.134;37.894;2024-03-17T06:21:41;13.65;;;4.32;;
67516;SDS011;68821;59.134;37.894;2024-03-17T06:24:07;10.82;;;4.60;;
67516;SDS011;68821;59.134;37.894;2024-03-17T06:26:33;11.02;;;3.97;;
67516;SDS011;68821;59.134;37.894;2024-03-17T06:29:00;13.57;;;4.78;;
67516;SDS011;68821;59.134;37.894;2024-03-17T06:31:26;11.95;;;4.53;;
67516;SDS011;68821;59.134;37.894;2024-03-17T06:33:52;11.45;;;4.50;;
67516;SDS011;68821;59.134;37.894;2024-03-17T06:36:17;10.85;;;4.28;;
67516;SDS011;68821;59.134;37.894;2024-03-17T06:38:43;11.55;;;4.50;;
67516;SDS011;68821;59.134;37.894;2024-03-17T06:41:09;14.43;;;4.05;;
67516;SDS011;68821;59.134;37.894;2024-03-17T06:43:35;8.90;;;4.57;;
67516;SDS011;68821;59.134;37.894;2024-03-17T06:46:01;13.60;;;4.32;;
67516;SDS011;68821;59.134;37.894;2024-03-17T06:48:31;12.95;;;4.63;;
67516;SDS011;68821;59.134;37.894;2024-03-17T06:50:59;10.57;;;4.40;;
67516;SDS011;68821;59.134;37.894;2024-03-17T06:53:25;10.23;;;4.13;;
67516;SDS011;68821;59.134;37.894;2024-03-17T06:55:58;11.43;;;4.93;;
67516;SDS011;68821;59.134;37.894;2024-03-17T06:58:24;9.45;;;3.90;;
67516;SDS011;68821;59.134;37.894;2024-03-17T07:00:52;10.23;;;3.97;;
67516;SDS011;68821;59.134;37.894;2024-03-17T07:03:18;8.98;;;4.28;;
67516;SDS011;68821;59.134;37.894;2024-03-17T07:05:50;12.18;;;4.53;;
67516;SDS011;68821;59.134;37.894;2024-03-17T07:08:16;9.13;;;4.05;;
67516;SDS011;68821;59.134;37.894;2024-03-17T07:10:42;9.88;;;4.22;;
67516;SDS011;68821;59.134;37.894;2024-03-17T07:13:07;10.73;;;4.95;;
67516;SDS011;68821;59.134;37.894;2024-03-17T07:15:34;12.13;;;4.55;;
67516;SDS011;68821;59.134;37.894;2024-03-17T07:18:00;14.38;;;5.50;;
67516;SDS011;68821;59.134;37.894;2024-03-17T07:20:27;9.55;;;4.35;;
67516;SDS011;68821;59.134;37.894;2024-03-17T07:22:53;12.48;;;4.50;;
67516;SDS011;68821;59.134;37.894;2024-03-17T07:25:19;10.40;;;5.25;;
67516;SDS011;68821;59.134;37.894;2024-03-17T07:27:45;11.60;;;4.22;;
67516;SDS011;68821;59.134;37.894;2024-03-17T07:30:11;11.13;;;4.28;;
67516;SDS011;68821;59.134;37.894;2024-03-17T07:32:37;15.93;;;4.50;;
67516;SDS011;68821;59.134;37.894;2024-03-17T07:35:03;11.48;;;5.03;;
67516;SDS011;68821;59.134;37.894;2024-03-17T07:37:28;14.32;;;4.25;;
67516;SDS011;68821;59.134;37.894;2024-03-17T07:39:54;9.93;;;4.10;;
67516;SDS011;68821;59.134;37.894;2024-03-17T07:42:20;8.98;;;4.40;;
67516;SDS011;68821;59.134;37.894;2024-03-17T07:44:46;12.27;;;5.32;;
67516;SDS011;68821;59.134;37.894;2024-03-17T07:47:12;10.18;;;4.15;;
67516;SDS011;68821;59.134;37.894;2024-03-17T07:49:38;12.15;;;5.07;;
67516;SDS011;68821;59.134;37.894;2024-03-17T07:52:04;12.85;;;4.55;;
67516;SDS011;68821;59.134;37.894;2024-03-17T07:54:30;11.88;;;4.47;;
67516;SDS011;68821;59.134;37.894;2024-03-17T07:56:56;11.90;;;4.75;;
67516;SDS011;68821;59.134;37.894;2024-03-17T07:59:22;14.68;;;4.85;;
67516;SDS011;68821;59.134;37.894;2024-03-17T08:01:48;12.82;;;4.68;;
67516;SDS011;68821;59.134;37.894;2024-03-17T08:04:14;16.90;;;5.00;;
67516;SDS011;68821;59.134;37.894;2024-03-17T08:06:40;11.25;;;5.00;;
67516;SDS011;68821;59.134;37.894;2024-03-17T08:09:09;10.93;;;5.05;;
67516;SDS011;68821;59.134;37.894;2024-03-17T08:11:36;13.38;;;5.00;;
67516;SDS011;68821;59.134;37.894;2024-03-17T08:14:02;14.77;;;4.90;;
67516;SDS011;68821;59.134;37.894;2024-03-17T08:16:28;15.75;;;5.57;;
67516;SDS011;68821;59.134;37.894;2024-03-17T08:18:55;10.68;;;4.15;;
67516;SDS011;68821;59.134;37.894;2024-03-17T08:21:21;13.20;;;4.95;;
67516;SDS011;68821;59.134;37.894;2024-03-17T08:23:46;12.65;;;5.13;;
67516;SDS011;68821;59.134;37.894;2024-03-17T08:26:12;14.13;;;4.68;;
67516;SDS011;68821;59.134;37.894;2024-03-17T08:28:38;11.48;;;4.72;;
67516;SDS011;68821;59.134;37.894;2024-03-17T08:31:04;14.15;;;4.72;;
67516;SDS011;68821;59.134;37.894;2024-03-17T08:33:30;14.52;;;4.72;;
67516;SDS011;68821;59.134;37.894;2024-03-17T08:36:03;11.27;;;4.55;;
67516;SDS011;68821;59.134;37.894;2024-03-17T08:38:30;18.00;;;5.82;;
67516;SDS011;68821;59.134;37.894;2024-03-17T08:40:57;12.70;;;4.88;;
67516;SDS011;68821;59.134;37.894;2024-03-17T08:43:23;10.15;;;4.65;;
67516;SDS011;68821;59.134;37.894;2024-03-17T08:45:56;12.90;;;4.85;;
67516;SDS011;68821;59.134;37.894;2024-03-17T08:48:24;12.80;;;4.57;;
67516;SDS011;68821;59.134;37.894;2024-03-17T08:50:51;11.13;;;4.75;;
67516;SDS011;68821;59.134;37.894;2024-03-17T08:53:16;18.77;;;5.38;;
67516;SDS011;68821;59.134;37.894;2024-03-17T08:55:42;13.15;;;6.15;;
67516;SDS011;68821;59.134;37.894;2024-03-17T08:58:09;14.25;;;5.55;;
67516;SDS011;68821;59.134;37.894;2024-03-17T09:00:35;11.93;;;4.70;;
67516;SDS011;68821;59.134;37.894;2024-03-17T09:03:02;14.90;;;4.95;;
67516;SDS011;68821;59.134;37.894;2024-03-17T09:05:28;12.32;;;5.10;;
67516;SDS011;68821;59.134;37.894;2024-03-17T09:07:54;15.50;;;4.78;;
67516;SDS011;68821;59.134;37.894;2024-03-17T09:10:21;14.70;;;4.93;;
67516;SDS011;68821;59.134;37.894;2024-03-17T09:12:46;14.65;;;5.05;;
67516;SDS011;68821;59.134;37.894;2024-03-17T09:15:13;12.55;;;5.15;;
67516;SDS011;68821;59.134;37.894;2024-03-17T09:17:40;16.95;;;4.97;;
67516;SDS011;68821;59.134;37.894;2024-03-17T09:20:06;17.65;;;4.88;;
67516;SDS011;68821;59.134;37.894;2024-03-17T09:22:39;16.55;;;4.80;;
67516;SDS011;68821;59.134;37.894;2024-03-17T09:25:06;13.48;;;5.32;;
67516;SDS011;68821;59.134;37.894;2024-03-17T09:27:33;15.48;;;4.43;;
67516;SDS011;68821;59.134;37.894;2024-03-17T09:29:59;10.32;;;4.60;;
67516;SDS011;68821;59.134;37.894;2024-03-17T09:32:25;14.65;;;5.55;;
67516;SDS011;68821;59.134;37.894;2024-03-17T09:34:51;16.70;;;6.43;;
67516;SDS011;68821;59.134;37.894;2024-03-17T09:37:17;13.25;;;4.45;;
67516;SDS011;68821;59.134;37.894;2024-03-17T09:39:46;13.95;;;5.75;;
67516;SDS011;68821;59.134;37.894;2024-03-17T09:42:16;15.25;;;4.57;;
67516;SDS011;68821;59.134;37.894;2024-03-17T09:44:42;15.55;;;4.80;;
67516;SDS011;68821;59.134;37.894;2024-03-17T09:47:09;19.77;;;5.47;;
67516;SDS011;68821;59.134;37.894;2024-03-17T09:49:37;16.65;;;5.03;;
67516;SDS011;68821;59.134;37.894;2024-03-17T09:52:02;21.67;;;5.57;;
67516;SDS011;68821;59.134;37.894;2024-03-17T09:54:28;13.65;;;5.05;;
67516;SDS011;68821;59.134;37.894;2024-03-17T09:56:56;20.48;;;5.82;;
67516;SDS011;68821;59.134;37.894;2024-03-17T09:59:21;18.77;;;6.07;;
67516;SDS011;68821;59.134;37.894;2024-03-17T10:01:47;12.95;;;5.53;;
67516;SDS011;68821;59.134;37.894;2024-03-17T10:06:46;20.40;;;5.82;;
67516;SDS011;68821;59.134;37.894;2024-03-17T10:09:15;16.27;;;4.95;;
67516;SDS011;68821;59.134;37.894;2024-03-17T10:11:46;16.13;;;6.47;;
67516;SDS011;68821;59.134;37.894;2024-03-17T10:14:12;14.25;;;5.78;;
67516;SDS011;68821;59.134;37.894;2024-03-17T10:16:40;17.38;;;5.28;;
67516;SDS011;68821;59.134;37.894;2024-03-17T10:19:08;19.55;;;6.38;;
67516;SDS011;68821;59.134;37.894;2024-03-17T10:21:36;15.07;;;5.38;;
67516;SDS011;68821;59.134;37.894;2024-03-17T10:24:06;15.75;;;5.78;;
67516;SDS011;68821;59.134;37.894;2024-03-17T10:26:40;18.02;;;5.60;;
67516;SDS011;68821;59.134;37.894;2024-03-17T10:29:15;15.50;;;5.18;;
67516;SDS011;68821;59.134;37.894;2024-03-17T10:31:44;21.17;;;5.78;;
67516;SDS011;68821;59.134;37.894;2024-03-17T10:34:14;16.23;;;5.60;;
67516;SDS011;68821;59.134;37.894;2024-03-17T10:36:42;16.17;;;6.50;;
67516;SDS011;68821;59.134;37.894;2024-03-17T10:39:24;17.85;;;5.95;;
67516;SDS011;68821;59.134;37.894;2024-03-17T10:41:57;15.98;;;6.43;;
67516;SDS011;68821;59.134;37.894;2024-03-17T10:44:25;13.43;;;6.22;;
67516;SDS011;68821;59.134;37.894;2024-03-17T10:46:51;14.73;;;7.38;;
67516;SDS011;68821;59.134;37.894;2024-03-17T10:49:19;16.33;;;6.53;;
67516;SDS011;68821;59.134;37.894;2024-03-17T10:54:18;15.40;;;6.45;;
67516;SDS011;68821;59.134;37.894;2024-03-17T10:56:47;21.70;;;7.13;;
67516;SDS011;68821;59.134;37.894;2024-03-17T10:59:13;16.23;;;6.20;;
67516;SDS011;68821;59.134;37.894;2024-03-17T11:01:40;17.73;;;6.80;;
67516;SDS011;68821;59.134;37.894;2024-03-17T11:04:07;21.33;;;6.18;;
67516;SDS011;68821;59.134;37.894;2024-03-17T11:06:37;17.13;;;6.30;;
67516;SDS011;68821;59.134;37.894;2024-03-17T11:09:03;14.85;;;6.93;;
67516;SDS011;68821;59.134;37.894;2024-03-17T11:11:35;17.05;;;5.75;;
67516;SDS011;68821;59.134;37.894;2024-03-17T11:14:16;29.38;;;7.63;;
67516;SDS011;68821;59.134;37.894;2024-03-17T11:16:42;18.55;;;6.45;;
67516;SDS011;68821;59.134;37.894;2024-03-17T11:19:08;20.20;;;6.70;;
67516;SDS011;68821;59.134;37.894;2024-03-17T11:21:38;19.25;;;5.72;;
67516;SDS011;68821;59.134;37.894;2024-03-17T11:24:04;16.17;;;5.78;;
67516;SDS011;68821;59.134;37.894;2024-03-17T11:26:33;15.40;;;7.22;;
67516;SDS011;68821;59.134;37.894;2024-03-17T11:29:00;18.40;;;6.03;;
67516;SDS011;68821;59.134;37.894;2024-03-17T11:34:07;23.33;;;6.00;;
67516;SDS011;68821;59.134;37.894;2024-03-17T11:36:50;23.73;;;7.30;;
67516;SDS011;68821;59.134;37.894;2024-03-17T11:39:17;17.05;;;6.95;;
67516;SDS011;68821;59.134;37.894;2024-03-17T11:41:47;22.55;;;7.20;;
67516;SDS011;68821;59.134;37.894;2024-03-17T11:47:05;14.23;;;5.78;;
67516;SDS011;68821;59.134;37.894;2024-03-17T11:51:59;19.05;;;5.65;;
67516;SDS011;68821;59.134;37.894;2024-03-17T11:54:32;18.95;;;5.93;;
67516;SDS011;68821;59.134;37.894;2024-03-17T11:57:02;14.35;;;6.00;;
67516;SDS011;68821;59.134;37.894;2024-03-17T11:59:28;20.23;;;6.25;;
67516;SDS011;68821;59.134;37.894;2024-03-17T12:01:55;14.20;;;5.57;;
67516;SDS011;68821;59.134;37.894;2024-03-17T12:04:21;22.83;;;6.28;;
67516;SDS011;68821;59.134;37.894;2024-03-17T12:09:24;13.38;;;5.47;;
67516;SDS011;68821;59.134;37.894;2024-03-17T12:11:50;15.63;;;5.80;;
67516;SDS011;68821;59.134;37.894;2024-03-17T12:14:17;17.73;;;5.38;;
67516;SDS011;68821;59.134;37.894;2024-03-17T12:19:15;13.32;;;4.97;;
67516;SDS011;68821;59.134;37.894;2024-03-17T12:21:46;13.77;;;5.40;;
67516;SDS011;68821;59.134;37.894;2024-03-17T12:24:14;18.77;;;5.35;;
67516;SDS011;68821;59.134;37.894;2024-03-17T12:26:40;14.68;;;5.13;;
67516;SDS011;68821;59.134;37.894;2024-03-17T12:29:20;16.33;;;5.07;;
67516;SDS011;68821;59.134;37.894;2024-03-17T12:31:47;15.45;;;4.68;;
67516;SDS011;68821;59.134;37.894;2024-03-17T12:34:13;16.30;;;6.90;;
67516;SDS011;68821;59.134;37.894;2024-03-17T12:36:39;19.63;;;5.55;;
67516;SDS011;68821;59.134;37.894;2024-03-17T12:42:06;12.45;;;5.18;;
67516;SDS011;68821;59.134;37.894;2024-03-17T12:44:40;11.98;;;5.20;;
67516;SDS011;68821;59.134;37.894;2024-03-17T12:47:14;13.63;;;4.85;;
67516;SDS011;68821;59.134;37.894;2024-03-17T12:49:43;17.33;;;4.93;;
67516;SDS011;68821;59.134;37.894;2024-03-17T12:52:15;12.85;;;4.80;;
67516;SDS011;68821;59.134;37.894;2024-03-17T12:54:42;13.63;;;4.60;;
67516;SDS011;68821;59.134;37.894;2024-03-17T12:57:15;13.00;;;4.63;;
67516;SDS011;68821;59.134;37.894;2024-03-17T13:00:00;12.80;;;4.10;;
67516;SDS011;68821;59.134;37.894;2024-03-17T13:02:47;12.65;;;4.15;;
67516;SDS011;68821;59.134;37.894;2024-03-17T13:05:17;17.73;;;4.53;;
67516;SDS011;68821;59.134;37.894;2024-03-17T13:07:44;14.18;;;4.20;;
67516;SDS011;68821;59.134;37.894;2024-03-17T13:10:18;10.68;;;3.78;;
67516;SDS011;68821;59.134;37.894;2024-03-17T13:12:44;13.40;;;4.28;;
67516;SDS011;68821;59.134;37.894;2024-03-17T13:15:12;13.70;;;4.40;;
67516;SDS011;68821;59.134;37.894;2024-03-17T13:17:38;12.63;;;3.83;;
67516;SDS011;68821;59.134;37.894;2024-03-17T13:20:05;14.43;;;4.50;;
67516;SDS011;68821;59.134;37.894;2024-03-17T13:22:34;11.82;;;4.03;;
67516;SDS011;68821;59.134;37.894;2024-03-17T13:25:01;11.02;;;4.25;;
67516;SDS011;68821;59.134;37.894;2024-03-17T13:27:26;10.02;;;4.82;;
67516;SDS011;68821;59.134;37.894;2024-03-17T13:29:52;16.33;;;4.28;;
67516;SDS011;68821;59.134;37.894;2024-03-17T13:32:19;19.92;;;5.07;;
67516;SDS011;68821;59.134;37.894;2024-03-17T13:34:45;10.80;;;4.40;;
67516;SDS011;68821;59.134;37.894;2024-03-17T13:37:11;18.50;;;9.93;;
67516;SDS011;68821;59.134;37.894;2024-03-17T13:39:37;14.50;;;4.32;;
67516;SDS011;68821;59.134;37.894;2024-03-17T13:42:03;11.23;;;3.80;;
67516;SDS011;68821;59.134;37.894;2024-03-17T13:44:29;10.88;;;4.28;;
67516;SDS011;68821;59.134;37.894;2024-03-17T13:46:59;13.88;;;4.82;;
67516;SDS011;68821;59.134;37.894;2024-03-17T13:49:27;10.20;;;3.78;;
67516;SDS011;68821;59.134;37.894;2024-03-17T13:51:54;11.95;;;4.10;;
67516;SDS011;68821;59.134;37.894;2024-03-17T13:54:20;12.20;;;4.22;;
67516;SDS011;68821;59.134;37.894;2024-03-17T13:56:49;16.13;;;3.92;;
67516;SDS011;68821;59.134;37.894;2024-03-17T13:59:18;8.48;;;3.50;;
67516;SDS011;68821;59.134;37.894;2024-03-17T14:01:44;16.05;;;4.20;;
67516;SDS011;68821;59.134;37.894;2024-03-17T14:04:13;11.05;;;3.70;;
67516;SDS011;68821;59.134;37.894;2024-03-17T14:06:41;17.65;;;4.07;;
67516;SDS011;68821;59.134;37.894;2024-03-17T14:09:07;10.65;;;3.92;;
67516;SDS011;68821;59.134;37.894;2024-03-17T14:11:36;9.57;;;3.67;;
67516;SDS011;68821;59.134;37.894;2024-03-17T14:14:02;9.85;;;3.53;;
67516;SDS011;68821;59.134;37.894;2024-03-17T14:16:31;15.70;;;4.53;;
67516;SDS011;68821;59.134;37.894;2024-03-17T14:18:58;9.57;;;3.85;;
67516;SDS011;68821;59.134;37.894;2024-03-17T14:21:25;13.38;;;4.43;;
67516;SDS011;68821;59.134;37.894;2024-03-17T14:23:51;12.35;;;3.85;;
67516;SDS011;68821;59.134;37.894;2024-03-17T14:26:17;10.25;;;4.15;;
67516;SDS011;68821;59.134;37.894;2024-03-17T14:28:43;13.02;;;4.00;;
67516;SDS011;68821;59.134;37.894;2024-03-17T14:31:09;9.93;;;3.55;;
67516;SDS011;68821;59.134;37.894;2024-03-17T14:33:35;9.90;;;3.53;;
67516;SDS011;68821;59.134;37.894;2024-03-17T14:36:01;11.23;;;3.85;;
67516;SDS011;68821;59.134;37.894;2024-03-17T14:38:27;9.85;;;3.45;;
67516;SDS011;68821;59.134;37.894;2024-03-17T14:40:52;12.23;;;3.60;;
67516;SDS011;68821;59.134;37.894;2024-03-17T14:43:19;9.57;;;3.92;;
67516;SDS011;68821;59.134;37.894;2024-03-17T14:45:45;9.70;;;3.70;;
67516;SDS011;68821;59.134;37.894;2024-03-17T14:48:11;13.75;;;3.65;;
67516;SDS011;68821;59.134;37.894;2024-03-17T14:50:39;10.57;;;3.58;;
67516;SDS011;68821;59.134;37.894;2024-03-17T14:53:05;14.32;;;3.67;;
67516;SDS011;68821;59.134;37.894;2024-03-17T14:55:31;11.20;;;3.67;;